createdAt,value
2023-01-10T00:00:00.161Z,5.30
2023-01-10T00:02:29.690Z,5.30
2023-01-10T00:04:59.159Z,5.30
2023-01-10T00:07:26.144Z,5.30
2023-01-10T00:09:55.849Z,5.20
2023-01-10T00:12:48.223Z,5.20
2023-01-10T00:15:17.819Z,5.30
2023-01-10T00:17:44.801Z,5.30
2023-01-10T00:20:12.200Z,5.30
2023-01-10T00:22:39.691Z,5.30
2023-01-10T00:25:09.456Z,5.30
2023-01-10T00:27:36.643Z,5.40
2023-01-10T00:30:13.977Z,5.40
2023-01-10T00:32:45.295Z,5.30
2023-01-10T00:35:12.790Z,5.30
2023-01-10T00:37:40.075Z,5.30
2023-01-10T00:40:12.041Z,5.30
2023-01-10T00:42:57.829Z,5.30
2023-01-10T00:45:27.618Z,5.30
2023-01-10T00:48:02.176Z,5.30
2023-01-10T00:50:29.155Z,5.30
2023-01-10T00:52:56.081Z,5.30
2023-01-10T00:55:23.078Z,5.20
2023-01-10T00:57:50.087Z,5.30
2023-01-10T01:00:17.294Z,5.30
2023-01-10T01:02:47.057Z,5.20
2023-01-10T01:05:17.600Z,5.20
2023-01-10T01:07:44.809Z,5.20
2023-01-10T01:10:26.407Z,5.10
2023-01-10T01:13:07.088Z,5.20
2023-01-10T01:15:39.752Z,5.10
2023-01-10T01:18:14.350Z,5.10
2023-01-10T01:20:41.644Z,5.10
2023-01-10T01:23:11.321Z,5.10
2023-01-10T01:25:38.427Z,5.10
2023-01-10T01:28:05.667Z,5.00
2023-01-10T01:30:32.852Z,5.00
2023-01-10T01:32:59.774Z,5.10
2023-01-10T01:35:26.813Z,5.00
2023-01-10T01:37:56.057Z,4.90
2023-01-10T01:40:25.928Z,4.90
2023-01-10T01:42:55.867Z,5.00
2023-01-10T01:45:22.900Z,4.90
2023-01-10T01:48:13.230Z,4.90
2023-01-10T01:50:55.182Z,4.90
2023-01-10T01:53:22.105Z,4.90
2023-01-10T01:55:54.133Z,4.90
2023-01-10T01:58:37.331Z,4.90
2023-01-10T02:01:10.875Z,4.90
2023-01-10T02:03:39.365Z,5.00
2023-01-10T02:06:07.350Z,5.00
2023-01-10T02:08:35.011Z,4.90
2023-01-10T02:11:10.754Z,4.90
2023-01-10T02:13:41.967Z,4.90
2023-01-10T02:16:12.082Z,4.90
2023-01-10T02:18:42.538Z,4.90
2023-01-10T02:21:36.393Z,4.90
2023-01-10T02:24:12.273Z,4.90
2023-01-10T02:27:04.221Z,4.90
2023-01-10T02:29:37.949Z,4.90
2023-01-10T02:32:31.775Z,4.80
2023-01-10T02:35:21.379Z,4.80
2023-01-10T02:38:07.818Z,4.70
2023-01-10T02:40:40.611Z,4.60
2023-01-10T02:43:24.931Z,4.60
2023-01-10T02:46:18.212Z,4.50
2023-01-10T02:48:45.228Z,4.40
2023-01-10T02:51:22.375Z,4.40
2023-01-10T02:53:55.628Z,4.40
2023-01-10T02:56:25.723Z,4.40
2023-01-10T02:58:58.605Z,4.40
2023-01-10T03:01:38.138Z,4.50
2023-01-10T03:04:11.625Z,4.50
2023-01-10T03:06:56.815Z,4.60
2023-01-10T03:09:35.400Z,4.60
2023-01-10T03:12:14.071Z,4.60
2023-01-10T03:14:42.731Z,4.70
2023-01-10T03:17:12.003Z,4.70
2023-01-10T03:19:48.857Z,4.70
2023-01-10T03:22:18.859Z,4.70
2023-01-10T03:24:51.902Z,4.60
2023-01-10T03:27:32.215Z,4.50
2023-01-10T03:30:05.020Z,4.50
2023-01-10T03:32:35.090Z,4.50
2023-01-10T03:35:03.596Z,4.50
2023-01-10T03:37:38.411Z,4.60
2023-01-10T03:40:33.449Z,4.60
2023-01-10T03:43:37.953Z,4.60
2023-01-10T03:46:12.033Z,4.70
2023-01-10T03:48:47.785Z,4.70
2023-01-10T03:51:19.016Z,4.80
2023-01-10T03:53:46.002Z,4.80
2023-01-10T03:56:16.846Z,4.80
2023-01-10T03:58:43.917Z,4.80
2023-01-10T04:01:11.039Z,4.90
2023-01-10T04:03:40.314Z,4.90
2023-01-10T04:06:07.473Z,4.90
2023-01-10T04:08:36.661Z,4.90
2023-01-10T04:11:04.450Z,4.90
2023-01-10T04:13:31.435Z,4.90
2023-01-10T04:16:01.045Z,4.80
2023-01-10T04:18:28.116Z,4.80
2023-01-10T04:21:00.120Z,4.80
2023-01-10T04:23:27.120Z,4.80
2023-01-10T04:25:54.043Z,4.90
2023-01-10T04:28:24.559Z,4.90
2023-01-10T04:30:54.162Z,4.80
2023-01-10T04:33:21.183Z,4.90
2023-01-10T04:35:51.908Z,4.80
2023-01-10T04:38:21.455Z,4.70
2023-01-10T04:40:56.363Z,4.70
2023-01-10T04:43:26.239Z,4.60
2023-01-10T04:45:55.412Z,4.50
2023-01-10T04:48:27.286Z,4.50
2023-01-10T04:50:54.961Z,4.50
2023-01-10T04:53:24.779Z,4.40
2023-01-10T04:55:54.369Z,4.40
2023-01-10T04:58:23.829Z,4.40
2023-01-10T05:00:53.900Z,4.40
2023-01-10T05:03:20.884Z,4.40
2023-01-10T05:05:47.819Z,4.40
2023-01-10T05:08:14.783Z,4.30
2023-01-10T05:10:41.688Z,4.20
2023-01-10T05:13:08.678Z,4.10
2023-01-10T05:15:35.876Z,4.00
2023-01-10T05:18:02.760Z,4.00
2023-01-10T05:20:31.876Z,4.00
2023-01-10T05:22:58.781Z,3.90
2023-01-10T05:25:25.818Z,3.80
2023-01-10T05:27:52.857Z,3.80
2023-01-10T05:30:20.009Z,3.80
2023-01-10T05:32:49.058Z,3.90
2023-01-10T05:35:17.423Z,4.00
2023-01-10T05:37:51.941Z,4.00
2023-01-10T05:40:19.163Z,4.10
2023-01-10T05:42:46.033Z,4.20
2023-01-10T05:45:12.947Z,4.20
2023-01-10T05:47:40.306Z,4.30
2023-01-10T05:50:07.661Z,4.30
2023-01-10T05:52:36.834Z,4.30
2023-01-10T05:55:04.321Z,4.40
2023-01-10T05:57:31.366Z,4.30
2023-01-10T05:59:58.585Z,4.40
2023-01-10T06:02:26.644Z,4.40
2023-01-10T06:04:55.481Z,4.50
2023-01-10T06:07:24.759Z,4.50
2023-01-10T06:09:53.836Z,4.40
2023-01-10T06:12:22.827Z,4.30
2023-01-10T06:14:51.828Z,4.30
2023-01-10T06:17:18.999Z,4.30
2023-01-10T06:19:47.022Z,4.40
2023-01-10T06:22:14.097Z,4.40
2023-01-10T06:24:42.430Z,4.40
2023-01-10T06:27:11.596Z,4.30
2023-01-10T06:29:41.431Z,4.30
2023-01-10T06:32:08.604Z,4.30
2023-01-10T06:34:35.627Z,4.30
2023-01-10T06:37:02.602Z,4.40
2023-01-10T06:39:34.420Z,4.40
2023-01-10T06:42:01.388Z,4.40
2023-01-10T06:44:28.375Z,4.40
2023-01-10T06:46:57.611Z,4.40
2023-01-10T06:49:24.622Z,4.30
2023-01-10T06:51:54.129Z,4.20
2023-01-10T06:54:21.099Z,4.10
2023-01-10T06:56:52.787Z,4.00
2023-01-10T06:59:21.920Z,3.90
2023-01-10T07:01:49.012Z,3.90
2023-01-10T07:04:16.225Z,3.90
2023-01-10T07:06:43.456Z,4.00
2023-01-10T07:09:10.588Z,4.00
2023-01-10T07:11:48.306Z,4.10
2023-01-10T07:14:15.210Z,4.20
2023-01-10T07:16:42.102Z,4.30
2023-01-10T07:19:09.058Z,4.40
2023-01-10T07:21:36.001Z,4.40
2023-01-10T07:24:05.650Z,4.50
2023-01-10T07:26:32.501Z,4.50
2023-01-10T07:29:01.856Z,4.50
2023-01-10T07:31:29.091Z,4.50
2023-01-10T07:33:56.155Z,4.60
2023-01-10T07:36:25.240Z,4.60
2023-01-10T07:38:59.401Z,4.70
2023-01-10T07:41:29.102Z,4.70
2023-01-10T07:43:58.963Z,4.70
2023-01-10T07:46:26.717Z,4.80
2023-01-10T07:48:53.678Z,4.80
2023-01-10T07:51:20.798Z,4.90
2023-01-10T07:53:47.922Z,4.90
2023-01-10T07:56:15.009Z,5.00
2023-01-10T07:58:42.038Z,5.00
2023-01-10T08:01:11.435Z,5.00
2023-01-10T08:03:38.753Z,5.10
2023-01-10T08:06:11.158Z,5.10
2023-01-10T08:08:40.852Z,5.10
2023-01-10T08:11:08.134Z,5.20
2023-01-10T08:13:35.000Z,5.10
2023-01-10T08:16:06.335Z,5.10
2023-01-10T08:18:33.582Z,5.10
2023-01-10T08:21:05.646Z,5.30
2023-01-10T08:23:32.682Z,5.30
2023-01-10T08:26:02.477Z,5.40
2023-01-10T08:28:31.784Z,5.40
2023-01-10T08:30:58.892Z,5.30
2023-01-10T08:33:27.394Z,5.40
2023-01-10T08:35:56.631Z,5.50
2023-01-10T08:38:23.625Z,5.60
2023-01-10T08:40:50.793Z,5.60
2023-01-10T08:43:17.753Z,5.70
2023-01-10T08:45:44.693Z,5.70
2023-01-10T08:48:12.014Z,5.80
2023-01-10T08:50:41.263Z,5.80
2023-01-10T08:53:08.381Z,5.90
2023-01-10T08:55:37.571Z,6.00
2023-01-10T08:58:07.027Z,6.00
2023-01-10T09:00:34.017Z,6.10
2023-01-10T09:03:01.162Z,6.20
2023-01-10T09:05:31.222Z,6.10
2023-01-10T09:08:02.278Z,6.10
2023-01-10T09:10:32.837Z,6.20
2023-01-10T09:13:04.201Z,6.20
2023-01-10T09:15:38.382Z,6.40
2023-01-10T09:18:09.634Z,6.50
2023-01-10T09:20:40.138Z,6.50
2023-01-10T09:23:09.753Z,6.60
2023-01-10T09:25:39.018Z,6.70
2023-01-10T09:28:06.601Z,6.70
2023-01-10T09:30:34.679Z,6.70
2023-01-10T09:33:07.249Z,6.70
2023-01-10T09:35:39.218Z,6.70
2023-01-10T09:38:08.521Z,6.60
2023-01-10T09:40:54.082Z,6.60
2023-01-10T09:43:45.320Z,6.60
2023-01-10T09:46:14.693Z,6.70
2023-01-10T09:48:56.740Z,6.70
2023-01-10T09:51:30.636Z,6.80
2023-01-10T09:54:11.268Z,6.90
2023-01-10T09:56:40.928Z,6.90
2023-01-10T09:59:20.492Z,6.90
2023-01-10T10:01:52.661Z,7.00
2023-01-10T10:04:25.454Z,7.10
2023-01-10T10:06:55.627Z,7.20
2023-01-10T10:09:30.138Z,7.20
2023-01-10T10:12:26.209Z,7.30
2023-01-10T10:15:04.202Z,7.30
2023-01-10T10:18:00.604Z,7.40
2023-01-10T10:20:40.245Z,7.40
2023-01-10T10:23:41.212Z,7.40
2023-01-10T10:26:22.779Z,7.60
2023-01-10T10:28:58.705Z,7.60
2023-01-10T10:31:59.428Z,7.60
2023-01-10T10:34:51.852Z,7.70
2023-01-10T10:37:26.700Z,7.80
2023-01-10T10:39:57.753Z,7.90
2023-01-10T10:42:34.019Z,7.90
2023-01-10T10:45:05.055Z,8.00
2023-01-10T10:47:36.118Z,8.00
2023-01-10T10:50:17.439Z,7.90
2023-01-10T10:52:45.652Z,8.00
2023-01-10T10:55:29.242Z,8.10
2023-01-10T10:58:01.797Z,8.20
2023-01-10T11:00:30.764Z,8.20
2023-01-10T11:03:16.004Z,8.30
2023-01-10T11:05:48.575Z,8.10
2023-01-10T11:08:21.474Z,8.10
2023-01-10T11:10:57.225Z,8.00
2023-01-10T11:13:33.501Z,8.00
2023-01-10T11:16:05.245Z,8.00
2023-01-10T11:18:38.493Z,8.00
2023-01-10T11:21:12.768Z,8.00
2023-01-10T11:24:01.177Z,8.00
2023-01-10T11:26:39.320Z,8.10
2023-01-10T11:29:42.871Z,8.10
2023-01-10T11:32:15.654Z,8.20
2023-01-10T11:34:59.318Z,8.30
2023-01-10T11:37:32.488Z,8.40
2023-01-10T11:40:25.837Z,8.50
2023-01-10T11:42:59.490Z,8.50
2023-01-10T11:45:29.262Z,8.70
2023-01-10T11:48:34.235Z,8.80
2023-01-10T11:51:25.487Z,8.80
2023-01-10T11:54:02.104Z,8.80
2023-01-10T11:56:34.695Z,8.80
2023-01-10T11:59:20.554Z,8.90
2023-01-10T12:02:12.114Z,8.90
2023-01-10T12:04:47.621Z,9.10
2023-01-10T12:07:14.595Z,9.10
2023-01-10T12:09:43.051Z,8.90
2023-01-10T12:12:17.792Z,8.60
2023-01-10T12:14:46.352Z,8.50
2023-01-10T12:17:37.819Z,8.30
2023-01-10T12:20:12.966Z,8.00
2023-01-10T12:22:48.813Z,7.90
2023-01-10T12:25:19.294Z,7.90
2023-01-10T12:27:50.373Z,8.00
2023-01-10T12:30:33.357Z,8.10
2023-01-10T12:33:07.513Z,8.50
2023-01-10T12:35:34.398Z,8.60
2023-01-10T12:38:20.057Z,8.80
2023-01-10T12:40:52.472Z,8.80
2023-01-10T12:43:45.491Z,8.70
2023-01-10T12:46:56.564Z,8.80
2023-01-10T12:49:47.585Z,8.80
2023-01-10T12:52:32.782Z,8.60
2023-01-10T12:55:00.655Z,8.50
2023-01-10T12:57:39.360Z,8.30
2023-01-10T13:00:21.453Z,8.20
2023-01-10T13:02:52.984Z,8.20
2023-01-10T13:05:24.200Z,8.10
2023-01-10T13:08:01.089Z,8.10
2023-01-10T13:10:31.966Z,8.10
2023-01-10T13:13:10.534Z,8.00
2023-01-10T13:15:47.504Z,7.90
2023-01-10T13:18:30.304Z,7.80
2023-01-10T13:21:13.545Z,7.70
2023-01-10T13:23:50.321Z,7.60
2023-01-10T13:26:18.533Z,7.70
2023-01-10T13:28:59.766Z,7.90
2023-01-10T13:31:35.937Z,8.20
2023-01-10T13:34:06.203Z,8.40
2023-01-10T13:36:38.324Z,8.70
2023-01-10T13:39:09.041Z,8.70
2023-01-10T13:42:16.446Z,8.70
2023-01-10T13:45:04.543Z,8.60
2023-01-10T13:47:40.598Z,8.50
2023-01-10T13:50:46.973Z,8.30
2023-01-10T13:53:16.217Z,8.10
2023-01-10T13:55:53.775Z,7.90
2023-01-10T13:58:42.349Z,7.80
2023-01-10T14:01:47.276Z,7.60
2023-01-10T14:04:47.925Z,7.40
2023-01-10T14:07:39.402Z,7.30
2023-01-10T14:10:18.696Z,7.20
2023-01-10T14:13:00.035Z,7.10
2023-01-10T14:15:40.409Z,7.00
2023-01-10T14:18:32.200Z,7.00
2023-01-10T14:21:07.633Z,7.00
2023-01-10T14:23:44.377Z,7.00
2023-01-10T14:26:21.517Z,7.00
2023-01-10T14:28:51.220Z,6.90
2023-01-10T14:31:26.942Z,6.80
2023-01-10T14:34:00.025Z,6.80
2023-01-10T14:36:32.343Z,6.70
2023-01-10T14:39:04.698Z,6.60
2023-01-10T14:41:36.838Z,6.40
2023-01-10T14:44:13.838Z,6.40
2023-01-10T14:46:47.942Z,6.30
2023-01-10T14:49:27.287Z,6.30
2023-01-10T14:52:19.426Z,6.30
2023-01-10T14:54:47.598Z,6.30
2023-01-10T14:57:23.284Z,6.20
2023-01-10T15:00:22.050Z,6.20
2023-01-10T15:02:49.610Z,6.10
2023-01-10T15:05:25.360Z,6.10
2023-01-10T15:08:16.994Z,6.00
2023-01-10T15:10:44.664Z,6.00
2023-01-10T15:13:17.497Z,6.00
2023-01-10T15:15:47.087Z,5.90
2023-01-10T15:18:36.616Z,5.90
2023-01-10T15:21:06.712Z,5.80
2023-01-10T15:23:37.757Z,5.80
2023-01-10T15:26:12.042Z,5.70
2023-01-10T15:28:39.056Z,5.70
2023-01-10T15:31:08.718Z,5.70
2023-01-10T15:33:37.351Z,5.70
2023-01-10T15:36:07.711Z,5.60
2023-01-10T15:38:38.449Z,5.60
2023-01-10T15:41:06.852Z,5.60
2023-01-10T15:43:35.433Z,5.60
2023-01-10T15:46:04.915Z,5.50
2023-01-10T15:48:40.886Z,5.50
2023-01-10T15:51:21.693Z,5.40
2023-01-10T15:54:03.167Z,5.30
2023-01-10T15:57:00.300Z,5.40
2023-01-10T15:59:35.399Z,5.30
2023-01-10T16:02:24.012Z,5.20
2023-01-10T16:04:56.168Z,5.10
2023-01-10T16:07:33.571Z,5.00
2023-01-10T16:10:07.783Z,4.90
2023-01-10T16:12:58.246Z,4.80
2023-01-10T16:15:31.034Z,4.80
2023-01-10T16:17:58.604Z,4.70
2023-01-10T16:20:37.019Z,4.70
2023-01-10T16:23:08.794Z,4.70
2023-01-10T16:25:38.962Z,4.60
2023-01-10T16:28:06.619Z,4.60
2023-01-10T16:30:34.909Z,4.60
2023-01-10T16:33:27.610Z,4.60
2023-01-10T16:35:57.047Z,4.60
2023-01-10T16:38:28.496Z,4.60
2023-01-10T16:41:25.910Z,4.60
2023-01-10T16:43:53.902Z,4.60
2023-01-10T16:46:21.589Z,4.70
2023-01-10T16:48:52.931Z,4.80
2023-01-10T16:51:25.290Z,4.80
2023-01-10T16:53:52.730Z,4.80
2023-01-10T16:56:22.205Z,4.90
2023-01-10T16:58:53.038Z,4.90
2023-01-10T17:01:24.772Z,5.00
2023-01-10T17:03:53.171Z,5.00
2023-01-10T17:06:20.334Z,5.00
2023-01-10T17:08:47.870Z,5.00
2023-01-10T17:11:26.558Z,5.00
2023-01-10T17:13:54.535Z,5.00
2023-01-10T17:16:26.243Z,4.90
2023-01-10T17:18:55.352Z,4.80
2023-01-10T17:21:23.128Z,4.80
2023-01-10T17:23:50.898Z,4.80
2023-01-10T17:26:19.700Z,4.70
2023-01-10T17:28:49.768Z,4.70
2023-01-10T17:31:20.478Z,4.70
2023-01-10T17:33:49.682Z,4.60
2023-01-10T17:36:19.797Z,4.60
2023-01-10T17:38:46.905Z,4.50
2023-01-10T17:41:14.344Z,4.50
2023-01-10T17:43:41.326Z,4.50
2023-01-10T17:46:08.590Z,4.50
2023-01-10T17:48:38.014Z,4.50
2023-01-10T17:51:07.714Z,4.50
2023-01-10T17:53:34.765Z,4.50
2023-01-10T17:56:05.016Z,4.60
2023-01-10T17:58:32.055Z,4.60
2023-01-10T18:00:59.409Z,4.60
2023-01-10T18:03:31.137Z,4.50
2023-01-10T18:07:05.802Z,4.50
2023-01-10T18:09:37.537Z,4.40
2023-01-10T18:12:07.288Z,4.40
2023-01-10T18:14:37.469Z,4.40
2023-01-10T18:17:12.661Z,4.40
2023-01-10T18:19:42.123Z,4.30
2023-01-10T18:22:29.793Z,4.40
2023-01-10T18:24:58.108Z,4.40
2023-01-10T18:27:28.118Z,4.40
2023-01-10T18:29:58.773Z,4.40
2023-01-10T18:32:25.925Z,4.50
2023-01-10T18:34:52.989Z,4.50
2023-01-10T18:37:22.247Z,4.60
2023-01-10T18:39:51.707Z,4.60
2023-01-10T18:42:19.024Z,4.60
2023-01-10T18:44:46.143Z,4.70
2023-01-10T18:47:13.266Z,4.70
2023-01-10T18:49:41.069Z,4.70
2023-01-10T18:52:08.126Z,4.70
2023-01-10T18:54:37.427Z,4.70
2023-01-10T18:57:04.401Z,4.80
2023-01-10T18:59:31.520Z,4.80
2023-01-10T19:02:03.204Z,4.80
2023-01-10T19:04:30.401Z,4.80
2023-01-10T19:06:59.525Z,4.90
2023-01-10T19:09:28.660Z,5.00
2023-01-10T19:11:55.681Z,5.10
2023-01-10T19:14:22.843Z,5.10
2023-01-10T19:16:52.247Z,5.10
2023-01-10T19:19:21.421Z,5.10
2023-01-10T19:21:48.506Z,5.10
2023-01-10T19:24:22.349Z,5.10
2023-01-10T19:26:49.418Z,5.10
2023-01-10T19:29:16.584Z,5.10
2023-01-10T19:31:53.364Z,5.10
2023-01-10T19:34:20.580Z,5.30
2023-01-10T19:36:49.687Z,5.30
2023-01-10T19:39:16.777Z,5.30
2023-01-10T19:41:43.816Z,5.30
2023-01-10T19:44:16.560Z,5.30
2023-01-10T19:46:45.496Z,5.40
2023-01-10T19:49:17.732Z,5.30
2023-01-10T19:51:51.432Z,5.40
2023-01-10T19:54:18.704Z,5.30
2023-01-10T19:56:45.878Z,5.20
2023-01-10T19:59:15.452Z,5.20
2023-01-10T20:01:45.153Z,5.10
2023-01-10T20:04:14.982Z,5.20
2023-01-10T20:06:45.276Z,5.20
2023-01-10T20:09:15.314Z,5.20
2023-01-10T20:11:43.086Z,5.20
2023-01-10T20:14:18.569Z,5.20
2023-01-10T20:16:45.999Z,5.20
2023-01-10T20:19:13.288Z,5.30
2023-01-10T20:21:43.666Z,5.30
2023-01-10T20:24:22.469Z,5.30
2023-01-10T20:26:53.313Z,5.30
2023-01-10T20:29:20.494Z,5.30
2023-01-10T20:31:52.986Z,5.30
2023-01-10T20:34:21.897Z,5.30
2023-01-10T20:36:52.403Z,5.30
2023-01-10T20:39:20.116Z,5.30
2023-01-10T20:41:47.114Z,5.30
2023-01-10T20:44:19.534Z,5.40
2023-01-10T20:46:49.115Z,5.40
2023-01-10T20:49:16.267Z,5.40
2023-01-10T20:51:50.036Z,5.50
2023-01-10T20:54:19.535Z,5.50
2023-01-10T20:56:51.669Z,5.50
2023-01-10T20:59:18.829Z,5.60
2023-01-10T21:01:46.003Z,5.60
2023-01-10T21:04:13.146Z,5.60
2023-01-10T21:06:42.846Z,5.60
2023-01-10T21:09:10.477Z,5.70
2023-01-10T21:11:57.881Z,5.80
2023-01-10T21:14:29.047Z,5.80
2023-01-10T21:16:56.168Z,5.80
2023-01-10T21:19:25.816Z,5.90
2023-01-10T21:21:55.416Z,5.80
2023-01-10T21:24:25.049Z,5.80
2023-01-10T21:26:59.207Z,5.70
2023-01-10T21:29:30.844Z,5.80
2023-01-10T21:32:00.009Z,5.80
2023-01-10T21:34:27.122Z,5.80
2023-01-10T21:36:54.463Z,5.80
2023-01-10T21:39:23.814Z,5.80
2023-01-10T21:42:11.932Z,5.80
2023-01-10T21:44:38.988Z,5.80
2023-01-10T21:47:06.331Z,5.80
2023-01-10T21:49:33.433Z,5.70
2023-01-10T21:52:03.134Z,5.70
2023-01-10T21:54:32.457Z,5.70
2023-01-10T21:57:02.079Z,5.70
2023-01-10T21:59:34.079Z,5.70
2023-01-10T22:02:01.175Z,5.70
2023-01-10T22:04:28.262Z,5.70
2023-01-10T22:06:56.353Z,5.60
2023-01-10T22:09:25.259Z,5.60
2023-01-10T22:11:52.360Z,5.60
2023-01-10T22:14:19.293Z,5.60
2023-01-10T22:16:46.324Z,5.60
2023-01-10T22:19:13.607Z,5.60
2023-01-10T22:21:41.741Z,5.60
2023-01-10T22:24:12.075Z,5.60
2023-01-10T22:26:41.631Z,5.60
2023-01-10T22:29:08.857Z,5.60
2023-01-10T22:31:35.969Z,5.60
2023-01-10T22:34:03.106Z,5.60
2023-01-10T22:36:30.056Z,5.70
2023-01-10T22:38:57.017Z,5.70
2023-01-10T22:41:29.917Z,5.70
2023-01-10T22:43:57.028Z,5.70
2023-01-10T22:46:27.735Z,5.70
2023-01-10T22:48:54.702Z,5.80
2023-01-10T22:51:24.914Z,5.80
2023-01-10T22:53:53.836Z,5.90
2023-01-10T22:56:24.192Z,6.00
2023-01-10T22:58:54.024Z,5.90
2023-01-10T23:01:22.804Z,5.90
2023-01-10T23:03:50.062Z,6.00
2023-01-10T23:06:19.927Z,6.00
2023-01-10T23:08:50.549Z,6.00
2023-01-10T23:11:19.359Z,6.10
2023-01-10T23:13:46.996Z,6.20
2023-01-10T23:16:21.139Z,6.20
2023-01-10T23:18:49.442Z,6.20
2023-01-10T23:21:19.640Z,6.20
2023-01-10T23:23:48.902Z,6.30
2023-01-10T23:26:18.964Z,6.30
2023-01-10T23:28:50.926Z,6.40
2023-01-10T23:31:22.922Z,6.40
2023-01-10T23:33:50.826Z,6.40
2023-01-10T23:36:18.681Z,6.40
2023-01-10T23:38:47.955Z,6.40
2023-01-10T23:41:15.317Z,6.40
2023-01-10T23:43:42.822Z,6.40
2023-01-10T23:46:10.010Z,6.50
2023-01-10T23:48:37.428Z,6.50
2023-01-10T23:51:07.656Z,6.50
2023-01-10T23:53:34.769Z,6.60
2023-01-10T23:56:07.048Z,6.60
2023-01-10T23:58:34.481Z,6.60
